Terminal Aerodrome Forecast
Issued by NWS

Home | Current Version | Previous Version | Text Only | Print | Product List | Glossary On
Versions: 1 2 3 4 5 6 7 8 9 10 11 12 13
000
FTUS45 KABQ 270500
TAFGUP
TAF
KGUP 270536Z 2706/2806 VRB03KT P6SM BKN200
     FM271000 13006KT P6SM BKN150
     FM271900 24007KT P6SM SCT080 BKN120
     FM280200 VRB03KT P6SM SCT050 BKN100=

USA.gov is the U.S. government's official web portal to all federal, state and local government web resources and services.